Terminal Aerodrome Forecast
Issued by NWS

Home | Current Version | Previous Version | Text Only | Print | Product List | Glossary On
Versions: 1 2 3 4 5 6 7 8 9 10 11 12 13 14 15 16 17
000
FTUS42 KTBW 042024 AAA
TAFPGD
TAF AMD
KPGD 042024Z 0420/0518 16008KT P6SM VCSH SCT008 BKN025 OVC060
     FM042200 20008KT P6SM VCTS SCT010CB BKN025 OVC060
     FM050200 29010KT P6SM SCT025 BKN060
     FM050600 32008KT P6SM FEW025 SCT060
     FM051400 34012KT P6SM SCT060=

USA.gov is the U.S. government's official web portal to all federal, state and local government web resources and services.